Time;durP1;ratioP1;P1;durP2;ratioP2;P2;SDS_P1;SDS_P2;PMS_P1;PMS_P2;Temp;Humidity;BMP_temperature;BMP_pressure;BME280_temperature;BME280_humidity;BME280_pressure;Samples;Min_cycle;Max_cycle;Signal;HPM_P1;HPM_P2
2022/05/28 00:01:54;;;;;;;5.57;1.83;;;20.60;61.10;;;;;;5011821;28;20413;-72
2022/05/28 00:04:20;;;;;;;4.67;1.50;;;20.60;61.20;;;;;;5010152;28;20561;-71
2022/05/28 00:06:48;;;;;;;4.67;1.70;;;20.50;61.10;;;;;;5011948;28;20461;-71
2022/05/28 00:09:16;;;;;;;6.00;1.80;;;20.50;61.10;;;;;;5010914;28;20454;-71
2022/05/28 00:11:45;;;;;;;2.67;1.90;;;20.50;61.10;;;;;;5010960;28;20427;-71
2022/05/28 00:14:15;;;;;;;3.70;1.60;;;20.50;61.20;;;;;;5010746;28;20426;-71
2022/05/28 00:16:46;;;;;;;5.17;1.77;;;20.50;61.20;;;;;;5011689;28;20505;-71
2022/05/28 00:19:14;;;;;;;3.20;1.60;;;20.50;61.30;;;;;;5010381;28;20814;-71
2022/05/28 00:21:43;;;;;;;3.07;1.63;;;20.50;61.30;;;;;;5010566;28;20529;-71
2022/05/28 00:24:10;;;;;;;4.63;1.90;;;20.40;61.30;;;;;;4996025;28;20795;-71
2022/05/28 00:26:41;;;;;;;4.57;1.83;;;20.40;61.30;;;;;;5014726;28;20475;-71
2022/05/28 00:29:07;;;;;;;3.40;1.90;;;20.40;61.40;;;;;;5015515;28;20782;-71
2022/05/28 00:31:36;;;;;;;6.53;2.97;;;20.40;61.40;;;;;;5015305;28;20407;-71
2022/05/28 00:34:04;;;;;;;6.23;1.70;;;20.40;61.60;;;;;;5015440;28;21451;-71
2022/05/28 00:36:35;;;;;;;3.00;1.57;;;20.30;61.50;;;;;;5014742;28;20775;-71
2022/05/28 00:39:04;;;;;;;2.30;1.40;;;20.40;61.80;;;;;;5014465;28;20446;-71
2022/05/28 00:41:32;;;;;;;3.40;1.63;;;20.30;61.70;;;;;;4997781;28;20441;-72
2022/05/28 00:44:04;;;;;;;5.20;1.57;;;20.30;61.70;;;;;;5015250;28;20426;-71
2022/05/28 00:46:35;;;;;;;5.03;1.57;;;20.30;61.80;;;;;;5014362;28;20413;-71
2022/05/28 00:49:08;;;;;;;6.83;1.60;;;20.30;61.80;;;;;;5015265;28;20426;-71
2022/05/28 00:51:50;;;;;;;3.17;1.27;;;20.30;61.90;;;;;;5013811;28;20808;-71
2022/05/28 00:54:19;;;;;;;4.70;1.60;;;20.20;61.90;;;;;;5014037;28;20413;-71
2022/05/28 00:56:46;;;;;;;3.13;1.30;;;20.20;61.90;;;;;;5015012;28;20523;-71
2022/05/28 00:59:15;;;;;;;2.80;1.50;;;20.20;61.90;;;;;;5015219;28;20965;-71
2022/05/28 01:01:44;;;;;;;4.70;1.60;;;20.20;62.00;;;;;;5015113;28;20410;-71
2022/05/28 01:04:31;;;;;;;4.40;1.73;;;20.20;62.10;;;;;;5013669;28;20785;-71
2022/05/28 01:07:03;;;;;;;4.60;1.60;;;20.20;62.20;;;;;;4997230;28;20425;-71
2022/05/28 01:09:57;;;;;;;4.17;1.50;;;20.20;62.20;;;;;;5030314;28;20438;-71
2022/05/28 01:12:32;;;;;;;3.93;1.60;;;20.20;62.20;;;;;;5013633;28;20413;-71
2022/05/28 01:15:18;;;;;;;3.17;1.83;;;20.10;62.10;;;;;;5013643;28;20462;-71
2022/05/28 01:18:07;;;;;;;2.60;1.60;;;20.10;62.20;;;;;;4997092;28;20441;-71
2022/05/28 01:20:48;;;;;;;3.03;1.53;;;20.10;62.30;;;;;;5014644;28;20458;-71
2022/05/28 01:23:52;;;;;;;7.10;1.73;;;20.10;62.40;;;;;;5014315;28;20440;-71
2022/05/28 01:26:18;;;;;;;4.60;2.40;;;20.10;62.50;;;;;;4953961;29;21068;-71
2022/05/28 01:28:58;;;;;;;2.80;1.30;;;20.00;62.50;;;;;;5013812;28;20537;-72
2022/05/28 01:31:31;;;;;;;3.10;1.63;;;20.00;62.50;;;;;;5014767;28;20687;-71
2022/05/28 01:34:01;;;;;;;5.07;1.70;;;20.00;62.60;;;;;;5012854;28;20991;-71
2022/05/28 01:36:30;;;;;;;5.43;2.20;;;20.00;62.60;;;;;;5013169;28;20519;-71
2022/05/28 01:38:59;;;;;;;3.10;1.63;;;20.00;62.70;;;;;;5014214;28;20454;-71
2022/05/28 01:41:32;;;;;;;2.87;1.53;;;20.00;62.70;;;;;;5013240;28;20401;-72
2022/05/28 01:44:02;;;;;;;3.87;1.70;;;20.00;62.70;;;;;;5013783;28;20453;-71
2022/05/28 01:46:31;;;;;;;4.63;1.67;;;20.00;62.80;;;;;;5013753;28;20542;-71
2022/05/28 01:48:58;;;;;;;4.30;1.43;;;20.00;62.90;;;;;;5012992;28;20484;-71
2022/05/28 01:51:37;;;;;;;4.43;1.70;;;19.90;62.80;;;;;;5013911;28;20642;-72
2022/05/28 01:54:07;;;;;;;4.23;1.67;;;20.00;63.00;;;;;;5014078;28;20414;-71
2022/05/28 01:56:44;;;;;;;3.17;1.60;;;19.90;62.80;;;;;;5013055;28;20405;-71
2022/05/28 01:59:22;;;;;;;4.67;2.13;;;19.90;62.80;;;;;;5012604;28;20425;-71
2022/05/28 02:01:54;;;;;;;4.90;1.70;;;19.90;62.90;;;;;;5029527;28;20439;-71
2022/05/28 02:04:22;;;;;;;5.57;2.20;;;19.90;62.90;;;;;;5012862;28;20428;-71
2022/05/28 02:06:49;;;;;;;3.40;2.03;;;19.80;62.80;;;;;;5013011;28;21057;-71
2022/05/28 02:09:21;;;;;;;4.93;2.40;;;19.80;62.90;;;;;;5013646;28;20980;-71
2022/05/28 02:12:17;;;;;;;3.33;1.37;;;19.80;62.90;;;;;;4996224;28;20458;-71
2022/05/28 02:15:01;;;;;;;3.40;1.60;;;19.80;63.00;;;;;;4981324;28;20512;-72
2022/05/28 02:17:27;;;;;;;3.10;1.57;;;19.80;63.10;;;;;;5012680;28;20808;-71
2022/05/28 02:20:41;;;;;;;2.77;1.50;;;19.80;63.10;;;;;;5011869;28;20457;-71
2022/05/28 02:23:27;;;;;;;4.07;1.70;;;19.80;63.20;;;;;;4934028;29;20668;-71
2022/05/28 02:26:15;;;;;;;4.23;1.60;;;19.80;63.30;;;;;;4990906;28;20939;-71
2022/05/28 02:28:45;;;;;;;4.87;1.97;;;19.70;63.20;;;;;;5012157;28;20445;-71
2022/05/28 02:31:25;;;;;;;4.57;1.90;;;19.70;63.20;;;;;;5012130;28;20437;-71
2022/05/28 02:33:53;;;;;;;3.90;1.97;;;19.70;63.20;;;;;;5013931;28;20424;-71
2022/05/28 02:36:20;;;;;;;4.33;1.60;;;19.70;63.30;;;;;;4995324;28;20792;-71
2022/05/28 02:38:51;;;;;;;5.30;2.00;;;19.70;63.30;;;;;;5012204;28;20434;-71
2022/05/28 02:41:18;;;;;;;6.10;1.97;;;19.60;63.20;;;;;;5013195;28;20980;-71
2022/05/28 02:43:45;;;;;;;3.80;1.57;;;19.70;63.40;;;;;;5013359;28;20445;-71
2022/05/28 02:46:16;;;;;;;4.03;1.67;;;19.60;63.30;;;;;;4995496;28;20552;-71
2022/05/28 02:48:46;;;;;;;4.00;1.83;;;19.60;63.30;;;;;;5027613;28;20444;-71
2022/05/28 02:51:20;;;;;;;3.63;1.70;;;19.60;63.40;;;;;;5011794;28;20813;-71
2022/05/28 02:53:50;;;;;;;7.80;1.93;;;19.60;63.50;;;;;;4996060;28;20430;-71
2022/05/28 02:56:20;;;;;;;4.27;2.10;;;19.60;63.50;;;;;;5013041;28;20430;-71
2022/05/28 02:58:46;;;;;;;3.00;1.87;;;19.60;63.60;;;;;;4995913;28;20418;-71
2022/05/28 03:01:27;;;;;;;6.00;2.10;;;19.60;63.70;;;;;;5011287;28;21029;-72
2022/05/28 03:03:57;;;;;;;3.47;1.60;;;19.60;63.70;;;;;;4992093;28;20438;-71
2022/05/28 03:06:26;;;;;;;7.57;2.00;;;19.50;63.60;;;;;;5007371;28;20962;-71
2022/05/28 03:08:54;;;;;;;4.23;1.80;;;19.50;63.70;;;;;;5011795;28;20505;-72
2022/05/28 03:11:24;;;;;;;3.93;2.00;;;19.50;63.80;;;;;;4995542;28;20426;-71
2022/05/28 03:13:51;;;;;;;3.50;1.80;;;19.50;63.80;;;;;;5012619;28;20413;-71
2022/05/28 03:16:20;;;;;;;4.17;2.00;;;19.50;63.90;;;;;;5011256;28;20525;-71
2022/05/28 03:18:46;;;;;;;5.80;2.47;;;19.50;63.90;;;;;;5011369;28;20532;-71
2022/05/28 03:21:12;;;;;;;5.07;1.70;;;19.50;64.00;;;;;;5011269;28;21028;-71
2022/05/28 03:23:40;;;;;;;3.40;1.97;;;19.40;63.90;;;;;;4995254;28;20930;-71
2022/05/28 03:26:24;;;;;;;3.43;1.73;;;19.40;64.00;;;;;;4994988;28;20540;-72
2022/05/28 03:28:52;;;;;;;4.00;1.83;;;19.40;64.10;;;;;;5011134;28;20217;-71
2022/05/28 03:31:19;;;;;;;6.57;2.20;;;19.40;64.10;;;;;;5011166;28;20798;-71
2022/05/28 03:33:45;;;;;;;5.30;1.80;;;19.40;64.20;;;;;;4978805;28;20417;-71
2022/05/28 03:36:12;;;;;;;4.73;2.00;;;19.40;64.30;;;;;;5012422;28;20410;-71
2022/05/28 03:38:41;;;;;;;6.33;2.00;;;19.30;64.30;;;;;;5011051;28;20429;-72
2022/05/28 03:41:07;;;;;;;5.70;1.97;;;19.30;64.30;;;;;;5011998;28;20441;-71
2022/05/28 03:43:36;;;;;;;4.27;2.00;;;19.30;64.40;;;;;;5011042;28;20464;-71
2022/05/28 03:46:03;;;;;;;3.60;1.83;;;19.30;64.40;;;;;;5012037;28;20446;-71
2022/05/28 03:48:30;;;;;;;3.40;1.67;;;19.30;64.50;;;;;;5011229;28;20967;-71
2022/05/28 03:50:56;;;;;;;4.83;1.77;;;19.30;64.60;;;;;;5012124;28;20444;-71
2022/05/28 03:53:24;;;;;;;4.83;1.63;;;19.30;64.70;;;;;;4994582;28;20429;-71
2022/05/28 03:55:51;;;;;;;4.07;1.70;;;19.20;64.60;;;;;;5010943;28;20457;-71
2022/05/28 03:58:19;;;;;;;3.10;1.60;;;19.30;64.80;;;;;;5011396;28;20413;-72
2022/05/28 04:00:47;;;;;;;4.37;2.20;;;19.20;64.80;;;;;;5011120;28;20536;-71
2022/05/28 04:03:13;;;;;;;7.63;2.30;;;19.20;64.90;;;;;;5010552;28;20458;-71
2022/05/28 04:05:42;;;;;;;5.53;1.90;;;19.20;64.90;;;;;;5012112;28;20468;-71
2022/05/28 04:08:13;;;;;;;5.63;2.30;;;19.20;65.00;;;;;;5011780;28;20488;-71
2022/05/28 04:10:41;;;;;;;9.03;2.00;;;19.20;65.10;;;;;;4975217;28;20532;-71
2022/05/28 04:13:09;;;;;;;5.20;2.40;;;19.20;65.20;;;;;;4991409;28;20414;-71
2022/05/28 04:15:37;;;;;;;7.53;3.50;;;19.20;66.10;;;;;;4996198;28;20833;-71
2022/05/28 04:18:07;;;;;;;2.73;1.60;;;19.20;65.30;;;;;;4994994;28;20425;-71
2022/05/28 04:20:36;;;;;;;4.00;2.40;;;19.20;66.20;;;;;;5009922;28;20473;-71
2022/05/28 04:23:02;;;;;;;5.67;2.30;;;19.20;65.50;;;;;;5011679;28;20427;-71
2022/05/28 04:25:30;;;;;;;7.87;2.10;;;19.10;65.50;;;;;;5010864;28;20821;-69
2022/05/28 04:27:56;;;;;;;4.40;2.33;;;19.10;65.60;;;;;;5010582;28;20458;-70
2022/05/28 04:30:24;;;;;;;5.40;2.10;;;19.10;65.60;;;;;;4994369;28;20439;-69
2022/05/28 04:32:52;;;;;;;4.37;1.97;;;19.10;65.70;;;;;;5005512;28;20178;-71
2022/05/28 04:35:19;;;;;;;4.63;1.73;;;19.10;66.60;;;;;;5008294;28;20425;-71
2022/05/28 04:37:47;;;;;;;4.10;2.00;;;19.10;65.80;;;;;;5007792;28;20472;-71
2022/05/28 04:40:15;;;;;;;5.93;1.90;;;19.10;65.90;;;;;;5009575;28;21244;-71
2022/05/28 04:42:41;;;;;;;3.57;1.90;;;19.10;66.00;;;;;;4988081;28;20422;-71
2022/05/28 04:45:10;;;;;;;5.70;1.97;;;19.10;66.10;;;;;;5003774;28;20462;-71
2022/05/28 04:47:40;;;;;;;4.53;1.93;;;19.00;66.10;;;;;;5001216;28;20484;-73
2022/05/28 04:50:09;;;;;;;2.90;2.00;;;19.00;66.20;;;;;;5007390;28;20455;-73
2022/05/28 04:52:38;;;;;;;3.43;1.90;;;19.00;66.30;;;;;;5009278;28;20424;-73
2022/05/28 04:55:06;;;;;;;4.10;2.30;;;19.00;66.40;;;;;;5008568;28;20421;-73
2022/05/28 04:57:32;;;;;;;7.87;2.50;;;19.00;66.40;;;;;;5007764;28;21101;-73
2022/05/28 05:00:01;;;;;;;8.13;2.30;;;19.00;66.50;;;;;;5009698;28;20448;-73
2022/05/28 05:02:27;;;;;;;4.83;2.20;;;19.00;66.70;;;;;;5007296;28;20434;-72
2022/05/28 05:04:57;;;;;;;5.70;1.90;;;18.90;66.60;;;;;;5007184;28;20457;-73
2022/05/28 05:07:30;;;;;;;6.73;2.30;;;18.90;66.80;;;;;;5008267;28;20431;-73
2022/05/28 05:09:56;;;;;;;8.43;3.17;;;18.90;66.90;;;;;;5007955;28;20452;-73
2022/05/28 05:12:24;;;;;;;5.67;2.27;;;18.90;66.90;;;;;;4991975;28;20467;-73
2022/05/28 05:14:52;;;;;;;8.90;2.00;;;18.90;67.00;;;;;;4975484;28;20453;-73
2022/05/28 05:17:23;;;;;;;5.20;2.40;;;18.90;67.20;;;;;;4999606;28;20486;-73
2022/05/28 05:19:49;;;;;;;3.10;1.70;;;18.90;67.30;;;;;;4979033;28;20465;-72
2022/05/28 05:22:15;;;;;;;5.23;2.03;;;18.90;67.50;;;;;;5011679;28;20502;-73
2022/05/28 05:24:46;;;;;;;3.40;2.20;;;18.90;67.60;;;;;;5010679;28;20847;-73
2022/05/28 05:27:17;;;;;;;3.50;2.10;;;18.90;67.60;;;;;;5008594;28;20467;-73
2022/05/28 05:29:47;;;;;;;3.53;1.83;;;18.80;67.70;;;;;;5010175;28;20444;-73
2022/05/28 05:32:18;;;;;;;6.23;2.13;;;18.80;67.90;;;;;;5010559;28;20429;-73
2022/05/28 05:34:47;;;;;;;3.40;1.90;;;18.80;67.90;;;;;;5011500;28;20436;-73
2022/05/28 05:37:18;;;;;;;3.77;1.73;;;18.80;68.00;;;;;;5010800;28;20487;-73
2022/05/28 05:39:47;;;;;;;3.40;1.90;;;18.80;68.20;;;;;;5011288;28;20466;-73
2022/05/28 05:42:15;;;;;;;6.60;2.37;;;18.80;68.30;;;;;;5010596;28;20956;-75
2022/05/28 05:44:43;;;;;;;6.23;2.23;;;18.80;68.30;;;;;;5010212;28;20460;-75
2022/05/28 05:47:09;;;;;;;5.97;2.40;;;18.80;68.50;;;;;;5020848;28;20265;-75
2022/05/28 05:49:35;;;;;;;6.53;2.80;;;18.80;68.60;;;;;;5014102;28;20447;-75
2022/05/28 05:52:02;;;;;;;6.13;2.47;;;18.80;68.80;;;;;;5030056;28;20438;-76
2022/05/28 05:54:28;;;;;;;5.73;2.50;;;18.80;68.90;;;;;;5013510;28;20422;-76
2022/05/28 05:56:54;;;;;;;7.07;3.27;;;18.70;68.90;;;;;;5012118;28;21000;-75
2022/05/28 05:59:23;;;;;;;5.30;2.57;;;18.80;69.10;;;;;;4995304;28;20530;-74
2022/05/28 06:01:52;;;;;;;4.93;2.33;;;18.70;69.20;;;;;;5013060;28;20419;-74
2022/05/28 06:04:22;;;;;;;9.97;3.20;;;18.70;69.30;;;;;;4996708;28;20539;-74
2022/05/28 06:06:48;;;;;;;6.90;2.37;;;18.70;69.40;;;;;;4995965;28;20988;-75
2022/05/28 06:09:16;;;;;;;6.87;2.47;;;18.70;69.50;;;;;;5012394;28;20430;-74
2022/05/28 06:11:45;;;;;;;7.07;3.17;;;18.70;69.60;;;;;;5012613;28;20241;-74
2022/05/28 06:14:13;;;;;;;6.00;2.37;;;18.70;69.80;;;;;;5013115;28;20496;-74
2022/05/28 06:16:39;;;;;;;9.13;3.00;;;18.70;69.80;;;;;;4996236;28;21031;-74
2022/05/28 06:19:06;;;;;;;6.10;2.27;;;18.70;69.70;;;;;;5013600;28;20420;-74
2022/05/28 06:21:37;;;;;;;5.83;2.50;;;18.70;69.70;;;;;;5027803;28;20497;-74
2022/05/28 06:24:10;;;;;;;8.20;2.50;;;18.70;69.70;;;;;;5012295;28;20436;-73
2022/05/28 06:26:39;;;;;;;5.93;2.60;;;18.70;69.80;;;;;;5013434;28;20519;-74
2022/05/28 06:29:10;;;;;;;5.33;1.70;;;18.70;69.80;;;;;;5029112;28;20413;-74
2022/05/28 06:31:39;;;;;;;5.30;2.13;;;18.70;69.80;;;;;;5013264;28;20513;-74
2022/05/28 06:34:09;;;;;;;4.93;2.10;;;18.70;69.80;;;;;;4996455;28;20905;-74
2022/05/28 06:36:37;;;;;;;9.73;2.30;;;18.70;69.80;;;;;;5011853;28;20499;-74
2022/05/28 06:39:03;;;;;;;4.33;1.83;;;18.70;69.70;;;;;;5012226;28;20971;-74
2022/05/28 06:41:32;;;;;;;6.57;1.97;;;18.70;69.60;;;;;;5013330;28;20424;-74
2022/05/28 06:43:59;;;;;;;5.90;2.30;;;18.70;69.60;;;;;;5012051;28;20423;-74
2022/05/28 06:46:25;;;;;;;5.80;1.60;;;18.70;69.60;;;;;;5011925;28;20476;-73
2022/05/28 06:48:57;;;;;;;6.03;2.17;;;18.70;69.60;;;;;;5013215;28;20967;-74
2022/05/28 06:51:26;;;;;;;3.37;1.50;;;18.60;69.50;;;;;;5027913;28;20540;-74
2022/05/28 06:53:56;;;;;;;4.13;1.60;;;18.60;69.50;;;;;;5012252;28;20780;-74
2022/05/28 06:56:25;;;;;;;8.77;2.23;;;18.70;69.60;;;;;;5013152;28;20422;-74
2022/05/28 06:58:53;;;;;;;9.67;2.33;;;18.60;69.40;;;;;;4995991;28;20459;-74
2022/05/28 07:01:22;;;;;;;18.60;2.60;;;18.70;69.20;;;;;;5011941;28;20457;-73
2022/05/28 07:03:48;;;;;;;16.67;2.93;;;18.60;68.80;;;;;;5012622;28;20412;-74
2022/05/28 07:06:16;;;;;;;3.83;1.70;;;18.50;68.60;;;;;;5028699;28;20432;-73
2022/05/28 07:08:42;;;;;;;10.83;1.47;;;18.40;67.00;;;;;;5012553;28;20444;-74
2022/05/28 07:11:10;;;;;;;5.67;1.40;;;18.20;67.70;;;;;;5012695;28;20523;-73
2022/05/28 07:13:36;;;;;;;4.60;1.30;;;18.10;67.70;;;;;;5013481;28;20432;-73
2022/05/28 07:16:06;;;;;;;4.87;1.30;;;18.00;67.10;;;;;;4996122;28;20502;-73
2022/05/28 07:18:36;;;;;;;4.03;1.90;;;17.90;66.00;;;;;;5013500;28;20442;-73
2022/05/28 07:21:08;;;;;;;3.90;1.10;;;17.80;65.50;;;;;;5012298;28;20566;-73
2022/05/28 07:23:34;;;;;;;4.77;1.23;;;17.80;65.30;;;;;;5013230;28;20497;-73
2022/05/28 07:26:14;;;;;;;4.50;1.20;;;17.60;65.70;;;;;;5013556;28;20463;-73
2022/05/28 07:28:45;;;;;;;9.30;1.80;;;17.60;66.10;;;;;;5012313;28;20437;-73
2022/05/28 07:31:21;;;;;;;3.20;1.13;;;17.50;66.30;;;;;;5012408;28;20834;-73
2022/05/28 07:33:48;;;;;;;2.77;1.17;;;17.40;66.10;;;;;;5012786;28;20446;-73
2022/05/28 07:36:23;;;;;;;2.57;1.00;;;17.40;64.40;;;;;;5028625;28;20747;-73
2022/05/28 07:38:55;;;;;;;2.70;1.10;;;17.30;65.50;;;;;;4993874;28;21028;-73
2022/05/28 07:41:26;;;;;;;6.37;1.50;;;17.20;65.10;;;;;;4981430;28;20427;-73
2022/05/28 07:43:54;;;;;;;7.27;2.50;;;17.30;64.20;;;;;;5013178;28;20494;-74
2022/05/28 07:46:22;;;;;;;2.80;1.10;;;17.20;64.20;;;;;;5012029;28;20525;-73
2022/05/28 07:48:49;;;;;;;5.43;1.10;;;17.20;64.20;;;;;;5012304;28;20794;-73
2022/05/28 07:51:16;;;;;;;4.00;1.20;;;17.10;64.80;;;;;;5011964;28;20842;-74
2022/05/28 07:53:45;;;;;;;4.30;1.23;;;17.20;65.80;;;;;;5012410;28;20426;-73
2022/05/28 07:56:11;;;;;;;2.03;1.23;;;17.20;65.80;;;;;;5013107;28;20424;-73
2022/05/28 07:58:38;;;;;;;3.43;1.13;;;17.30;67.00;;;;;;5012132;28;20473;-73
2022/05/28 08:01:06;;;;;;;2.93;1.20;;;17.30;66.20;;;;;;5011760;28;20510;-73
2022/05/28 08:03:35;;;;;;;4.50;1.20;;;17.40;66.10;;;;;;5011969;28;20458;-73
2022/05/28 08:06:01;;;;;;;5.93;1.13;;;17.40;66.70;;;;;;4995281;28;20566;-73
2022/05/28 08:08:32;;;;;;;8.20;1.80;;;17.50;66.70;;;;;;5013062;28;20802;-73
2022/05/28 08:10:58;;;;;;;3.60;1.20;;;17.50;66.60;;;;;;5011767;28;20450;-73
2022/05/28 08:13:26;;;;;;;4.83;1.10;;;17.60;67.60;;;;;;4995443;28;20414;-71
2022/05/28 08:15:54;;;;;;;5.80;1.20;;;17.60;67.20;;;;;;4995720;28;20416;-72
2022/05/28 08:18:26;;;;;;;2.17;1.00;;;17.70;67.40;;;;;;4995956;28;20815;-72
2022/05/28 08:23:43;;;;;;;6.00;1.60;;;17.80;66.10;;;;;;5011532;28;21139;-72
2022/05/28 08:26:11;;;;;;;4.83;1.43;;;17.80;64.80;;;;;;5010947;28;20855;-72
2022/05/28 08:28:39;;;;;;;3.63;1.17;;;17.80;63.00;;;;;;4994826;28;20426;-72
2022/05/28 08:31:08;;;;;;;4.87;1.53;;;17.80;63.80;;;;;;5010968;28;20461;-72
2022/05/28 08:33:34;;;;;;;4.60;1.47;;;17.80;63.40;;;;;;5011560;28;20435;-71
2022/05/28 08:36:00;;;;;;;4.17;1.10;;;17.80;64.40;;;;;;5012079;28;20890;-70
2022/05/28 08:38:29;;;;;;;3.33;0.90;;;17.80;62.10;;;;;;5010966;28;20440;-70
2022/05/28 08:41:05;;;;;;;6.10;2.10;;;17.80;62.80;;;;;;5011875;28;20460;-70
2022/05/28 08:43:37;;;;;;;3.33;1.37;;;17.70;62.50;;;;;;5010906;28;21140;-71
2022/05/28 08:46:11;;;;;;;3.93;1.37;;;17.70;61.10;;;;;;5014585;28;20842;-70
2022/05/28 08:48:50;;;;;;;4.30;1.33;;;17.70;62.10;;;;;;5015118;28;20495;-71
2022/05/28 08:51:40;;;;;;;9.40;1.80;;;17.60;61.80;;;;;;4998758;28;20455;-72
2022/05/28 08:54:29;;;;;;;2.33;1.00;;;17.60;61.60;;;;;;5014807;28;20463;-72
2022/05/28 08:57:01;;;;;;;6.23;1.40;;;17.50;60.00;;;;;;5016511;28;20473;-72
2022/05/28 08:59:42;;;;;;;5.30;1.30;;;17.60;59.90;;;;;;5015233;28;20971;-72
2022/05/28 09:02:32;;;;;;;3.67;1.23;;;17.60;59.70;;;;;;4999389;28;20463;-72
2022/05/28 09:05:00;;;;;;;4.47;1.17;;;17.70;59.80;;;;;;5014831;28;20513;-75
2022/05/28 09:07:28;;;;;;;4.33;1.67;;;17.70;60.10;;;;;;5015237;28;20418;-73
2022/05/28 09:09:58;;;;;;;7.73;1.20;;;17.70;60.50;;;;;;5015111;28;20523;-73
2022/05/28 09:12:28;;;;;;;4.77;1.40;;;17.70;61.30;;;;;;5015283;28;20790;-73
2022/05/28 09:14:58;;;;;;;4.90;1.50;;;17.70;61.80;;;;;;5015732;28;20428;-73
2022/05/28 09:17:31;;;;;;;7.43;1.70;;;17.80;62.00;;;;;;5015451;28;20466;-73
2022/05/28 09:20:05;;;;;;;4.83;1.20;;;17.80;61.70;;;;;;5014611;28;20474;-73
2022/05/28 09:22:31;;;;;;;4.50;1.50;;;17.90;61.50;;;;;;5015860;28;20457;-73
2022/05/28 09:24:57;;;;;;;5.87;1.63;;;18.00;60.80;;;;;;5014769;28;20463;-74
2022/05/28 09:27:51;;;;;;;5.33;1.60;;;18.00;59.80;;;;;;5015883;28;20943;-73
2022/05/28 09:30:51;;;;;;;6.13;1.50;;;18.00;61.20;;;;;;5015713;28;20212;-73
2022/05/28 09:33:35;;;;;;;5.60;1.50;;;18.00;60.90;;;;;;4997596;28;20973;-73
2022/05/28 09:36:19;;;;;;;6.00;1.80;;;18.20;59.60;;;;;;5014673;28;20430;-73
2022/05/28 09:39:09;;;;;;;3.60;1.30;;;18.10;58.50;;;;;;4982040;28;20798;-74
2022/05/28 09:41:54;;;;;;;4.80;1.67;;;18.10;58.90;;;;;;5014405;28;20412;-73
2022/05/28 09:44:29;;;;;;;4.20;2.27;;;18.10;59.60;;;;;;5015434;28;20402;-73
2022/05/28 09:47:16;;;;;;;6.50;1.20;;;18.10;60.20;;;;;;5015506;28;20412;-73
2022/05/28 09:49:58;;;;;;;3.97;1.40;;;18.10;60.30;;;;;;4998119;28;20439;-73
2022/05/28 09:52:34;;;;;;;4.80;1.43;;;18.10;60.20;;;;;;5015458;28;20396;-74
2022/05/28 09:55:18;;;;;;;3.37;1.03;;;18.20;59.20;;;;;;5015335;28;20403;-74
2022/05/28 09:58:02;;;;;;;4.10;1.40;;;18.20;58.80;;;;;;5013588;28;20424;-73
2022/05/28 10:00:28;;;;;;;5.20;1.40;;;18.30;59.30;;;;;;5014066;28;20420;-74
2022/05/28 10:05:57;;;;;;;5.40;1.77;;;18.30;58.60;;;;;;5015200;28;20448;-74
2022/05/28 10:08:34;;;;;;;5.03;1.60;;;18.40;57.80;;;;;;5014077;28;20444;-74
2022/05/28 10:11:02;;;;;;;7.03;1.67;;;18.50;58.40;;;;;;4997661;28;20484;-74
2022/05/28 10:13:40;;;;;;;5.07;1.37;;;18.50;58.80;;;;;;5014045;28;20509;-74
2022/05/28 10:16:09;;;;;;;2.90;1.33;;;18.60;57.70;;;;;;4997739;28;20455;-74
2022/05/28 10:18:38;;;;;;;7.93;1.43;;;18.50;56.80;;;;;;4997663;28;20431;-74
2022/05/28 10:21:09;;;;;;;5.97;2.00;;;18.50;57.30;;;;;;5014611;28;20460;-76
2022/05/28 10:23:39;;;;;;;2.67;1.23;;;18.50;57.50;;;;;;4997352;28;20518;-74
2022/05/28 10:26:22;;;;;;;4.53;1.33;;;18.60;58.10;;;;;;4980902;28;20470;-74
2022/05/28 10:28:54;;;;;;;5.13;1.17;;;18.60;57.40;;;;;;5013510;28;20411;-75
2022/05/28 10:31:35;;;;;;;4.80;1.70;;;18.60;57.40;;;;;;5013746;28;20524;-75
2022/05/28 10:34:04;;;;;;;6.23;2.13;;;18.60;57.70;;;;;;4997236;28;20850;-73
2022/05/28 10:36:35;;;;;;;4.27;1.43;;;18.60;56.90;;;;;;5014527;28;20781;-72
2022/05/28 10:39:16;;;;;;;4.00;1.40;;;18.50;56.60;;;;;;5013330;28;20411;-73
2022/05/28 10:41:44;;;;;;;8.13;2.60;;;18.60;57.70;;;;;;4997269;28;20419;-73
2022/05/28 10:44:16;;;;;;;4.93;1.73;;;18.60;57.30;;;;;;5013283;28;20403;-73
2022/05/28 10:46:53;;;;;;;7.00;2.00;;;18.70;57.00;;;;;;4996750;28;20461;-71
2022/05/28 10:49:21;;;;;;;7.07;2.20;;;18.60;57.20;;;;;;4981353;28;20804;-73
2022/05/28 10:51:58;;;;;;;5.53;2.27;;;18.60;57.70;;;;;;5013890;28;20404;-73
2022/05/28 10:54:54;;;;;;;6.07;2.07;;;18.60;58.20;;;;;;4996580;28;20239;-74
2022/05/28 10:57:48;;;;;;;4.27;1.77;;;18.50;58.50;;;;;;5012982;28;20404;-74
2022/05/28 11:00:16;;;;;;;3.60;1.63;;;18.60;58.90;;;;;;5013251;28;20512;-75
2022/05/28 11:02:57;;;;;;;3.57;1.70;;;18.70;59.00;;;;;;5012994;28;20429;-75
2022/05/28 11:05:57;;;;;;;4.50;1.57;;;18.80;59.00;;;;;;5014098;28;20461;-74
2022/05/28 11:08:34;;;;;;;6.43;1.70;;;18.80;59.10;;;;;;4995577;28;20472;-77
2022/05/28 11:11:25;;;;;;;3.67;1.50;;;18.80;58.60;;;;;;4976975;28;21001;-76
2022/05/28 11:14:29;;;;;;;4.70;1.60;;;18.80;57.80;;;;;;4993234;28;20424;-76
2022/05/28 11:17:33;;;;;;;7.10;1.53;;;18.70;57.60;;;;;;4993068;28;20429;-75
2022/05/28 11:20:32;;;;;;;4.97;1.67;;;18.60;57.40;;;;;;4992939;28;20451;-75
2022/05/28 11:23:23;;;;;;;5.17;2.80;;;18.50;57.50;;;;;;4993297;28;20456;-76
2022/05/28 11:26:23;;;;;;;6.30;2.70;;;18.50;57.40;;;;;;4994098;28;20476;-76
2022/05/28 11:29:14;;;;;;;7.57;4.13;;;18.50;56.90;;;;;;4992917;28;20890;-76
2022/05/28 11:31:55;;;;;;;8.90;2.27;;;18.50;57.00;;;;;;4993143;28;20398;-77
2022/05/28 11:34:30;;;;;;;4.83;2.67;;;18.50;57.20;;;;;;4994389;28;20409;-76
2022/05/28 11:37:06;;;;;;;3.83;2.17;;;18.50;56.20;;;;;;4993776;28;20462;-76
2022/05/28 11:39:41;;;;;;;4.57;1.80;;;18.50;55.80;;;;;;5009608;28;20439;-76
2022/05/28 11:42:21;;;;;;;2.97;1.50;;;18.60;56.50;;;;;;5013461;28;20400;-76
2022/05/28 11:44:56;;;;;;;8.50;1.93;;;18.70;56.90;;;;;;5012096;28;21047;-76
2022/05/28 11:47:54;;;;;;;3.13;1.30;;;18.80;58.10;;;;;;5011724;28;20909;-75
2022/05/28 11:53:41;;;;;;;3.50;1.77;;;19.10;56.20;;;;;;4999042;28;20439;-76
2022/05/28 11:56:15;;;;;;;6.27;1.60;;;19.20;57.30;;;;;;5011367;28;20440;-74
2022/05/28 11:58:55;;;;;;;4.07;1.40;;;19.30;57.70;;;;;;4996289;28;20441;-75
2022/05/28 12:01:27;;;;;;;4.10;1.80;;;19.40;56.70;;;;;;4994975;28;20454;-74
2022/05/28 12:03:53;;;;;;;7.33;2.00;;;19.40;55.10;;;;;;5013167;28;20875;-76
2022/05/28 12:06:28;;;;;;;4.93;1.80;;;19.40;54.70;;;;;;5011902;28;20461;-74
2022/05/28 12:09:00;;;;;;;7.07;1.97;;;19.40;55.10;;;;;;5012988;28;20424;-75
2022/05/28 12:12:03;;;;;;;5.93;2.23;;;19.30;54.70;;;;;;5012551;28;20420;-75
2022/05/28 12:14:39;;;;;;;4.60;1.77;;;19.20;55.20;;;;;;4984876;28;20437;-75
2022/05/28 12:17:19;;;;;;;6.87;1.47;;;19.20;55.00;;;;;;4979173;28;20836;-75
2022/05/28 12:20:14;;;;;;;6.07;1.67;;;19.10;54.60;;;;;;5012509;28;21073;-75
2022/05/28 12:22:58;;;;;;;5.00;1.33;;;19.10;54.70;;;;;;5011106;28;20433;-74
2022/05/28 12:25:37;;;;;;;4.97;1.50;;;19.10;55.50;;;;;;5016999;28;20534;-75
2022/05/28 12:28:22;;;;;;;3.63;1.43;;;19.20;56.40;;;;;;5016778;28;20394;-74
2022/05/28 12:30:53;;;;;;;2.63;1.20;;;19.40;56.30;;;;;;4999933;28;20972;-73
2022/05/28 12:33:33;;;;;;;3.50;1.60;;;19.50;54.50;;;;;;5015935;28;20412;-75
2022/05/28 12:36:21;;;;;;;5.93;1.90;;;19.50;54.70;;;;;;4999356;28;20467;-75
2022/05/28 12:39:42;;;;;;;3.43;1.57;;;19.60;54.60;;;;;;4996208;28;20900;-74
2022/05/28 12:42:26;;;;;;;7.70;2.10;;;19.40;53.80;;;;;;4996188;28;20419;-75
2022/05/28 12:44:52;;;;;;;13.83;1.70;;;19.40;52.60;;;;;;4979816;28;20429;-74
2022/05/28 12:47:28;;;;;;;6.93;1.70;;;19.30;53.60;;;;;;4995944;28;20406;-74
2022/05/28 12:50:10;;;;;;;4.70;1.53;;;19.30;54.90;;;;;;4963787;28;21007;-74
2022/05/28 12:52:51;;;;;;;5.53;1.63;;;19.20;53.60;;;;;;4995822;28;20453;-74
2022/05/28 12:55:35;;;;;;;7.07;1.27;;;19.30;53.70;;;;;;4997085;28;20401;-75
2022/05/28 12:58:06;;;;;;;3.57;1.43;;;19.40;53.10;;;;;;4995832;28;20456;-74
2022/05/28 13:00:54;;;;;;;3.10;1.50;;;19.50;52.60;;;;;;4995872;28;20995;-74
2022/05/28 13:03:23;;;;;;;5.57;1.70;;;19.50;53.10;;;;;;4995718;28;20471;-73
2022/05/28 13:06:03;;;;;;;4.30;1.80;;;19.50;53.90;;;;;;4994901;28;20479;-74
2022/05/28 13:08:32;;;;;;;9.03;1.63;;;19.60;54.60;;;;;;5015431;28;20429;-75
2022/05/28 13:11:21;;;;;;;9.27;2.00;;;19.60;54.80;;;;;;5015174;28;20464;-74
2022/05/28 13:14:17;;;;;;;6.70;2.40;;;19.60;55.50;;;;;;5015228;28;20429;-75
2022/05/28 13:16:54;;;;;;;4.37;1.50;;;19.70;55.20;;;;;;4995468;28;20807;-74
2022/05/28 13:19:45;;;;;;;4.60;1.80;;;19.70;55.30;;;;;;4995381;28;20489;-74
2022/05/28 13:22:48;;;;;;;6.13;1.77;;;19.80;54.60;;;;;;4995121;28;20508;-74
2022/05/28 13:25:20;;;;;;;5.63;1.67;;;19.80;54.70;;;;;;4994406;28;21064;-74
2022/05/28 13:28:16;;;;;;;6.57;2.03;;;19.90;54.90;;;;;;4995316;28;20513;-74